Time;durP1;ratioP1;P1;durP2;ratioP2;P2;SDS_P1;SDS_P2;PMS_P1;PMS_P2;Temp;Humidity;BMP_temperature;BMP_pressure;BME280_temperature;BME280_humidity;BME280_pressure;Samples;Min_cycle;Max_cycle;Signal;HPM_P1;HPM_P2
2021/11/20 00:01:24;;;;;;;84.62;23.10;;;;;;;4.68;100.00;100403.08;1375381;103;21193;-93
2021/11/20 00:03:51;;;;;;;84.50;23.52;;;;;;;4.70;100.00;100400.17;1376146;102;21226;-91
2021/11/20 00:06:24;;;;;;;84.92;23.20;;;;;;;4.73;100.00;100398.38;1376382;102;21194;-91
2021/11/20 00:08:51;;;;;;;83.92;23.52;;;;;;;4.75;100.00;100394.45;1323466;107;21208;-92
2021/11/20 00:11:22;;;;;;;85.45;23.10;;;;;;;4.79;100.00;100397.48;1334020;106;21202;-92
2021/11/20 00:13:49;;;;;;;77.97;22.52;;;;;;;4.84;100.00;100397.62;1332672;106;21624;-92
2021/11/20 00:16:18;;;;;;;88.27;23.75;;;;;;;4.86;100.00;100390.73;1322913;108;21256;-93
2021/11/20 00:18:45;;;;;;;86.22;23.10;;;;;;;4.88;100.00;100380.13;1323062;108;21747;-92
2021/11/20 00:21:22;;;;;;;78.28;22.30;;;;;;;4.86;100.00;100370.19;1323114;107;21185;-91
2021/11/20 00:23:54;;;;;;;76.60;21.55;;;;;;;4.91;100.00;100370.82;1323217;107;21189;-92
2021/11/20 00:26:28;;;;;;;83.00;22.13;;;;;;;4.90;100.00;100367.34;1323085;108;21175;-91
2021/11/20 00:31:31;;;;;;;81.95;21.85;;;;;;;4.91;100.00;100340.11;1340511;107;21150;-93
2021/11/20 00:33:57;;;;;;;74.85;21.90;;;;;;;4.89;100.00;100341.69;1385080;101;21898;-92
2021/11/20 00:36:24;;;;;;;77.00;22.00;;;;;;;4.91;100.00;100338.28;1398519;101;22396;-92
2021/11/20 00:38:51;;;;;;;77.70;21.90;;;;;;;4.94;100.00;100325.81;1398410;102;21613;-92
2021/11/20 00:41:22;;;;;;;78.65;21.35;;;;;;;4.95;100.00;100322.09;1398408;102;21174;-92
2021/11/20 00:43:50;;;;;;;78.15;22.35;;;;;;;5.00;100.00;100326.75;1382453;103;21143;-92
2021/11/20 00:46:21;;;;;;;70.05;20.37;;;;;;;5.02;100.00;100321.98;1441584;97;21761;-92
2021/11/20 00:48:48;;;;;;;71.92;22.17;;;;;;;5.04;100.00;100315.89;1470465;97;21856;-92
2021/11/20 00:51:17;;;;;;;71.37;21.25;;;;;;;5.08;100.00;100308.23;1449686;98;21559;-91
2021/11/20 00:53:44;;;;;;;76.95;21.00;;;;;;;5.08;100.00;100305.03;1442695;98;21050;-93
2021/11/20 00:56:14;;;;;;;72.03;21.15;;;;;;;5.10;100.00;100299.47;1429325;100;21106;-90
2021/11/20 00:58:42;;;;;;;76.25;22.02;;;;;;;5.10;100.00;100301.62;1439287;99;21212;-90
2021/11/20 01:01:13;;;;;;;79.55;21.95;;;;;;;5.09;100.00;100293.81;1430296;100;21665;-91
2021/11/20 01:03:40;;;;;;;67.62;21.93;;;;;;;5.09;100.00;100283.97;1436754;99;21091;-90
2021/11/20 01:06:06;;;;;;;83.22;23.12;;;;;;;5.10;100.00;100282.11;1440763;98;21100;-90
2021/11/20 01:08:38;;;;;;;78.55;21.97;;;;;;;5.10;100.00;100282.92;1468031;96;21108;-90
2021/11/20 01:11:09;;;;;;;81.08;22.70;;;;;;;5.13;100.00;100280.31;1459005;96;21208;-90
2021/11/20 01:13:36;;;;;;;78.22;21.60;;;;;;;5.14;100.00;100277.39;1504824;94;21226;-90
2021/11/20 01:16:07;;;;;;;79.40;22.80;;;;;;;5.13;100.00;100268.30;1497302;95;21099;-90
2021/11/20 01:18:34;;;;;;;81.02;21.80;;;;;;;5.12;100.00;100266.15;1496824;95;21178;-91
2021/11/20 01:21:01;;;;;;;84.45;22.15;;;;;;;5.12;100.00;100252.80;1502728;93;21034;-91
2021/11/20 01:23:30;;;;;;;75.78;21.70;;;;;;;5.13;100.00;100252.27;1502048;93;21038;-90
2021/11/20 01:25:58;;;;;;;78.17;21.80;;;;;;;5.15;100.00;100248.85;1544712;92;21867;-91
2021/11/20 01:28:28;;;;;;;80.60;22.77;;;;;;;5.17;100.00;100244.07;1546719;92;21115;-90
2021/11/20 01:30:56;;;;;;;81.63;21.90;;;;;;;5.17;100.00;100248.08;1546523;91;21121;-91
2021/11/20 01:33:23;;;;;;;76.53;21.35;;;;;;;5.19;100.00;100238.79;1546543;92;21258;-91
2021/11/20 01:35:49;;;;;;;78.65;21.27;;;;;;;5.19;100.00;100233.97;1546234;91;21132;-91
2021/11/20 01:38:16;;;;;;;79.97;21.37;;;;;;;5.17;100.00;100229.38;1490790;96;21152;-90
2021/11/20 01:40:45;;;;;;;76.00;20.88;;;;;;;5.19;100.00;100225.43;1568236;88;21162;-90
2021/11/20 01:43:12;;;;;;;88.90;21.82;;;;;;;5.21;100.00;100229.22;1591133;89;21597;-90
2021/11/20 01:45:52;;;;;;;86.17;22.73;;;;;;;5.22;100.00;100222.83;1613248;88;21066;-91
2021/11/20 01:48:30;;;;;;;74.95;21.45;;;;;;;5.20;100.00;100219.56;1565166;91;21786;-90
2021/11/20 01:51:10;;;;;;;75.40;21.97;;;;;;;5.21;100.00;100218.01;1566599;91;21118;-91
2021/11/20 01:53:51;;;;;;;77.55;21.48;;;;;;;5.23;100.00;100215.92;1570300;91;21052;-92
2021/11/20 01:56:25;;;;;;;78.50;22.40;;;;;;;5.23;100.00;100218.59;1497583;95;21097;-91
2021/11/20 01:59:06;;;;;;;78.25;22.58;;;;;;;5.24;100.00;100211.39;1560273;92;21156;-91
2021/11/20 02:01:43;;;;;;;80.32;22.98;;;;;;;5.24;100.00;100204.18;1560685;92;21066;-90
2021/11/20 02:04:21;;;;;;;78.92;21.90;;;;;;;5.25;100.00;100195.64;1557900;91;21161;-91
2021/11/20 02:07:04;;;;;;;91.17;24.70;;;;;;;5.27;100.00;100196.23;1535346;93;20945;-91
2021/11/20 02:09:44;;;;;;;90.30;24.00;;;;;;;5.30;100.00;100194.95;1535329;93;21175;-90
2021/11/20 02:12:18;;;;;;;79.25;24.15;;;;;;;5.31;100.00;100186.69;1535468;93;21444;-90
2021/11/20 02:14:46;;;;;;;85.12;23.77;;;;;;;5.35;100.00;100176.33;1532101;91;21150;-90
2021/11/20 02:17:23;;;;;;;83.25;25.27;;;;;;;5.36;100.00;100172.63;1533173;93;21759;-93
2021/11/20 02:19:55;;;;;;;77.22;22.10;;;;;;;5.37;100.00;100177.73;1516446;94;21203;-92
2021/11/20 02:22:41;;;;;;;71.10;22.00;;;;;;;5.37;100.00;100171.58;1516865;94;21083;-92
2021/11/20 02:25:06;;;;;;;69.47;21.42;;;;;;;5.35;100.00;100169.66;1516397;94;21456;-92
2021/11/20 02:27:43;;;;;;;78.15;23.22;;;;;;;5.38;100.00;100167.34;1516458;93;21016;-91
2021/11/20 02:30:26;;;;;;;79.03;23.87;;;;;;;5.41;100.00;100157.52;1516572;94;21259;-91
2021/11/20 02:33:06;;;;;;;82.85;24.15;;;;;;;5.43;100.00;100155.93;1515638;94;21219;-90
2021/11/20 02:35:41;;;;;;;82.72;23.25;;;;;;;5.45;100.00;100150.64;1400929;102;21864;-93
2021/11/20 02:38:12;;;;;;;82.17;24.63;;;;;;;5.48;100.00;100154.70;1380611;103;21125;-91
2021/11/20 02:40:39;;;;;;;78.52;22.05;;;;;;;5.51;100.00;100146.74;1380757;102;21154;-91
2021/11/20 02:43:08;;;;;;;86.85;23.62;;;;;;;5.51;100.00;100147.55;1380846;102;21243;-91
2021/11/20 02:45:39;;;;;;;85.28;23.62;;;;;;;5.53;100.00;100139.28;1398922;102;21591;-91
2021/11/20 02:48:07;;;;;;;88.92;24.52;;;;;;;5.51;100.00;100135.52;1405467;102;21141;-91
2021/11/20 02:50:50;;;;;;;82.88;23.27;;;;;;;5.51;100.00;100128.04;1402920;100;21557;-92
2021/11/20 02:53:22;;;;;;;81.28;23.50;;;;;;;5.50;100.00;100123.22;1402221;101;21258;-92
2021/11/20 02:55:52;;;;;;;89.40;24.57;;;;;;;5.49;100.00;100124.25;1399674;100;21273;-92
2021/11/20 02:58:23;;;;;;;85.85;24.18;;;;;;;5.51;100.00;100108.00;1389121;103;21518;-92
2021/11/20 03:00:55;;;;;;;89.72;24.55;;;;;;;5.53;100.00;100103.20;1389170;103;21139;-91
2021/11/20 03:03:21;;;;;;;87.33;23.77;;;;;;;5.55;100.00;100099.78;1398468;101;21712;-92
2021/11/20 03:05:47;;;;;;;85.50;23.35;;;;;;;5.54;100.00;100092.29;1402173;100;21662;-92
2021/11/20 03:08:13;;;;;;;87.55;25.50;;;;;;;5.55;100.00;100079.20;1402151;101;22156;-91
2021/11/20 03:10:41;;;;;;;83.05;24.25;;;;;;;5.57;100.00;100074.97;1402113;100;21591;-91
2021/11/20 03:13:07;;;;;;;79.92;23.75;;;;;;;5.59;100.00;100064.83;1406042;101;21110;-93
2021/11/20 03:15:33;;;;;;;82.78;24.10;;;;;;;5.60;100.00;100067.27;1412354;100;21313;-91
2021/11/20 03:18:00;;;;;;;81.02;24.52;;;;;;;5.61;100.00;100068.08;1432057;98;21112;-92
2021/11/20 03:20:26;;;;;;;73.33;21.87;;;;;;;5.61;100.00;100064.88;1432319;98;21286;-92
2021/11/20 03:23:06;;;;;;;81.45;22.95;;;;;;;5.65;100.00;100059.36;1432014;98;21184;-92
2021/11/20 03:25:33;;;;;;;71.10;22.55;;;;;;;5.67;100.00;100049.74;1432189;98;21126;-92
2021/11/20 03:27:59;;;;;;;79.80;22.55;;;;;;;5.68;100.00;100054.86;1432273;98;21165;-92
2021/11/20 03:30:25;;;;;;;80.25;23.27;;;;;;;5.73;100.00;100048.78;1432239;98;21176;-91
2021/11/20 03:32:52;;;;;;;81.67;23.95;;;;;;;5.76;100.00;100038.13;1490325;94;21534;-91
2021/11/20 03:35:19;;;;;;;83.40;23.62;;;;;;;5.77;100.00;100035.23;1535067;91;21039;-92
2021/11/20 03:37:45;;;;;;;74.03;22.87;;;;;;;5.80;100.00;100029.40;1552854;91;21075;-92
2021/11/20 03:40:13;;;;;;;83.52;24.67;;;;;;;5.80;100.00;100015.23;1552633;91;21075;-92
2021/11/20 03:42:40;;;;;;;77.60;23.45;;;;;;;5.80;100.00;100010.69;1609529;86;20968;-90
2021/11/20 03:45:10;;;;;;;86.00;25.72;;;;;;;5.80;100.00;100004.00;1655812;85;39607;-91
2021/11/20 03:47:37;;;;;;;82.42;25.30;;;;;;;5.75;100.00;99993.75;1652542;86;21504;-91
2021/11/20 03:50:05;;;;;;;86.22;24.32;;;;;;;5.76;100.00;99996.69;1652649;86;21090;-91
2021/11/20 03:52:32;;;;;;;80.32;23.62;;;;;;;5.77;100.00;99992.98;1653143;86;21059;-91
2021/11/20 03:54:58;;;;;;;88.80;23.45;;;;;;;5.78;100.00;99990.59;1609124;88;21631;-91
2021/11/20 03:57:24;;;;;;;86.10;24.47;;;;;;;5.79;100.00;99980.16;1621842;87;21167;-91
2021/11/20 03:59:51;;;;;;;79.80;22.35;;;;;;;5.80;100.00;99978.60;1620059;88;21074;-91
2021/11/20 04:02:18;;;;;;;83.50;24.65;;;;;;;5.81;100.00;99975.39;1620419;87;21026;-90
2021/11/20 04:04:44;;;;;;;88.58;25.70;;;;;;;5.82;100.00;99972.99;1620530;88;21020;-90
2021/11/20 04:07:11;;;;;;;81.82;24.67;;;;;;;5.81;100.00;99970.85;1620376;88;21126;-90
2021/11/20 04:09:37;;;;;;;85.90;25.20;;;;;;;5.82;100.00;99963.10;1617577;88;21076;-91
2021/11/20 04:12:05;;;;;;;86.28;24.50;;;;;;;5.86;100.00;99962.92;1620579;88;20967;-91
2021/11/20 04:14:31;;;;;;;81.47;23.60;;;;;;;5.86;100.00;99961.58;1620556;87;21166;-90
2021/11/20 04:16:57;;;;;;;81.32;24.02;;;;;;;5.89;100.00;99965.10;1611410;87;21512;-90
2021/11/20 04:19:24;;;;;;;88.87;25.00;;;;;;;5.90;100.00;99954.67;1572533;88;21451;-90
2021/11/20 04:21:52;;;;;;;81.65;25.25;;;;;;;5.92;100.00;99949.91;1611328;88;21407;-90
2021/11/20 04:24:20;;;;;;;96.15;26.00;;;;;;;5.95;100.00;99945.16;1611884;88;21071;-90
2021/11/20 04:26:47;;;;;;;81.85;25.27;;;;;;;5.96;100.00;99943.56;1613172;88;21527;-90
2021/11/20 04:29:13;;;;;;;82.75;24.40;;;;;;;5.96;100.00;99934.20;1613452;88;21614;-90
2021/11/20 04:31:40;;;;;;;82.25;24.65;;;;;;;5.97;100.00;99940.36;1603997;89;21035;-91
2021/11/20 04:34:06;;;;;;;80.25;24.20;;;;;;;5.98;100.00;99943.33;1595714;89;21139;-91
2021/11/20 04:36:33;;;;;;;77.20;24.27;;;;;;;5.98;100.00;99929.96;1595265;89;21124;-90
2021/11/20 04:39:01;;;;;;;78.62;24.67;;;;;;;5.98;100.00;99935.31;1595659;89;21540;-90
2021/11/20 04:41:30;;;;;;;81.37;24.32;;;;;;;5.97;100.00;99927.81;1595247;88;21096;-90
2021/11/20 04:43:56;;;;;;;77.95;23.22;;;;;;;6.00;100.00;99921.14;1595534;89;21036;-91
2021/11/20 04:46:27;;;;;;;75.75;24.67;;;;;;;6.00;100.00;99923.82;1595397;89;21021;-91
2021/11/20 04:48:54;;;;;;;74.90;21.80;;;;;;;6.01;100.00;99920.91;1595485;88;21468;-91
2021/11/20 04:51:22;;;;;;;88.42;24.60;;;;;;;6.05;100.00;99925.23;1595576;88;21674;-91
2021/11/20 04:53:50;;;;;;;69.80;22.55;;;;;;;6.06;100.00;99917.48;1595483;89;21052;-91
2021/11/20 04:56:20;;;;;;;77.53;23.30;;;;;;;6.08;100.00;99919.39;1595485;89;21118;-91
2021/11/20 04:58:50;;;;;;;74.75;22.52;;;;;;;6.09;100.00;99927.19;1595522;89;21181;-91
2021/11/20 05:01:20;;;;;;;72.55;22.02;;;;;;;6.10;100.00;99923.44;1595572;89;21110;-90
2021/11/20 05:03:49;;;;;;;74.85;23.85;;;;;;;6.11;100.00;99918.89;1589615;89;21159;-91
2021/11/20 05:06:19;;;;;;;71.55;21.35;;;;;;;6.13;100.00;99924.82;1595441;89;20992;-92
2021/11/20 05:08:45;;;;;;;72.00;22.67;;;;;;;6.12;100.00;99922.68;1595578;89;21544;-91
2021/11/20 05:11:12;;;;;;;63.35;20.82;;;;;;;6.17;100.00;99926.47;1595451;89;21547;-92
2021/11/20 05:13:39;;;;;;;64.58;21.52;;;;;;;6.17;100.00;99915.23;1595412;89;21509;-92
2021/11/20 05:16:06;;;;;;;67.85;21.85;;;;;;;6.20;100.00;99915.27;1595284;88;21484;-91
2021/11/20 05:18:33;;;;;;;75.83;21.68;;;;;;;6.18;100.00;99906.17;1595398;89;21123;-91
2021/11/20 05:21:01;;;;;;;64.07;21.33;;;;;;;6.20;100.00;99897.88;1567479;91;21100;-91
2021/11/20 05:23:31;;;;;;;63.08;21.45;;;;;;;6.20;100.00;99889.32;1560944;91;21934;-92
2021/11/20 05:25:57;;;;;;;58.83;20.85;;;;;;;6.23;100.00;99889.36;1560938;90;21078;-90
2021/11/20 05:28:24;;;;;;;63.20;20.23;;;;;;;6.22;100.00;99883.20;1596825;89;21485;-90
2021/11/20 05:30:52;;;;;;;58.55;18.80;;;;;;;6.20;100.00;99890.66;1595192;89;21087;-89
2021/11/20 05:33:32;;;;;;;59.48;19.60;;;;;;;6.22;100.00;99884.54;1595071;89;21059;-90
2021/11/20 05:36:00;;;;;;;60.35;19.82;;;;;;;6.23;100.00;99888.02;1607061;88;21181;-89
2021/11/20 05:38:27;;;;;;;65.47;20.05;;;;;;;6.22;100.00;99885.88;1607309;88;21640;-89
2021/11/20 05:40:54;;;;;;;62.27;20.90;;;;;;;6.27;100.00;99882.47;1607164;88;21121;-89
2021/11/20 05:43:24;;;;;;;62.35;20.70;;;;;;;6.25;100.00;99870.66;1607305;88;21105;-90
2021/11/20 05:45:55;;;;;;;60.08;20.80;;;;;;;6.25;100.00;99878.69;1607312;88;21150;-90
2021/11/20 05:48:22;;;;;;;53.63;18.32;;;;;;;6.27;100.00;99871.77;1607434;88;21128;-92
2021/11/20 05:50:54;;;;;;;59.15;19.62;;;;;;;6.30;100.00;99862.70;1607376;88;21441;-92
2021/11/20 05:53:27;;;;;;;58.55;19.20;;;;;;;6.31;100.00;99859.50;1582355;89;21544;-91
2021/11/20 05:55:56;;;;;;;60.30;19.75;;;;;;;6.34;100.00;99851.77;1591405;88;21123;-92
2021/11/20 05:58:23;;;;;;;63.02;19.92;;;;;;;6.34;100.00;99848.30;1560789;90;21070;-91
2021/11/20 06:00:57;;;;;;;58.33;19.35;;;;;;;6.36;100.00;99840.83;1551064;90;22013;-91
2021/11/20 06:03:24;;;;;;;;;;;;;;;6.42;100.00;99832.34;1588025;88;21544;-91
2021/11/20 06:05:53;;;;;;;55.15;18.02;;;;;;;6.42;100.00;99842.51;1589749;88;20524;-91
2021/11/20 06:08:25;;;;;;;64.22;19.70;;;;;;;6.43;100.00;99837.42;1557854;90;21272;-91
2021/11/20 06:10:55;;;;;;;58.33;17.52;;;;;;;6.42;100.00;99837.16;1555017;90;21725;-92
2021/11/20 06:13:23;;;;;;;52.27;16.70;;;;;;;6.42;100.00;99831.00;1582777;89;21192;-92
2021/11/20 06:15:50;;;;;;;54.58;17.67;;;;;;;6.45;100.00;99851.91;1560307;89;21125;-90
2021/11/20 06:18:17;;;;;;;51.75;18.65;;;;;;;6.46;100.00;99853.52;1574741;91;21140;-90
2021/11/20 06:20:46;;;;;;;47.88;16.12;;;;;;;6.51;100.00;99854.91;1613614;88;21221;-90
2021/11/20 06:23:15;;;;;;;50.00;16.90;;;;;;;6.51;100.00;99842.33;1622490;88;21617;-91
2021/11/20 06:25:43;;;;;;;43.78;15.68;;;;;;;6.53;100.00;99836.72;1605327;88;21074;-91
2021/11/20 06:28:10;;;;;;;52.53;17.45;;;;;;;6.55;100.00;99830.59;1624388;86;21152;-90
2021/11/20 06:30:39;;;;;;;48.60;16.30;;;;;;;6.58;100.00;99822.85;1627321;88;21022;-90
2021/11/20 06:33:06;;;;;;;42.55;15.32;;;;;;;6.62;100.00;99817.83;1613584;88;21483;-90
2021/11/20 06:35:39;;;;;;;42.25;14.55;;;;;;;6.68;100.00;99820.03;1606689;87;21107;-90
2021/11/20 06:38:10;;;;;;;50.30;17.30;;;;;;;6.70;100.00;99820.03;1605832;87;21224;-89
2021/11/20 06:40:41;;;;;;;49.35;18.07;;;;;;;6.72;100.00;99813.09;1558368;91;21179;-90
2021/11/20 06:43:13;;;;;;;49.33;16.15;;;;;;;6.73;100.00;99810.14;1561974;91;21076;-91
2021/11/20 06:45:43;;;;;;;50.52;17.90;;;;;;;6.75;100.00;99797.32;1559335;91;21183;-92
2021/11/20 06:48:20;;;;;;;47.05;17.35;;;;;;;6.75;100.00;99785.27;1562035;91;21608;-88
2021/11/20 06:53:36;;;;;;;;;;;;;;;;;;;;;
2021/11/20 06:56:13;;;;;;;47.90;17.15;;;;;;;6.81;100.00;99764.17;1442173;98;21229;-89
2021/11/20 07:01:12;;;;;;;42.43;14.65;;;;;;;6.86;100.00;99769.31;1432240;97;21179;-89
2021/11/20 07:03:46;;;;;;;39.63;14.63;;;;;;;6.88;100.00;99754.58;1404261;99;22268;-91
2021/11/20 07:06:18;;;;;;;33.10;13.53;;;;;;;6.91;100.00;99767.98;1414242;100;21622;-91
2021/11/20 07:11:16;;;;;;;33.53;11.90;;;;;;;6.98;100.00;99754.67;1405026;100;21279;-91
2021/11/20 07:13:48;;;;;;;28.55;11.38;;;;;;;7.00;100.00;99753.89;1404957;100;21211;-90
2021/11/20 07:16:22;;;;;;;29.15;10.85;;;;;;;7.04;100.00;99750.95;1397174;100;21614;-91
2021/11/20 07:18:44;;;;;;;27.17;11.75;;;;;;;7.07;100.00;99746.16;1382668;101;21175;-90
2021/11/20 07:21:12;;;;;;;25.88;9.68;;;;;;;7.08;100.00;99741.87;1362245;104;21202;-92
2021/11/20 07:23:42;;;;;;;25.85;10.40;;;;;;;7.11;100.00;99736.00;1362376;104;21513;-90
2021/11/20 07:26:14;;;;;;;24.57;10.18;;;;;;;7.13;100.00;99734.41;1340945;105;21198;-91
2021/11/20 07:31:14;;;;;;;23.25;8.70;;;;;;;7.21;100.00;99726.70;1273568;111;21239;-89
2021/11/20 07:33:40;;;;;;;21.97;9.63;;;;;;;7.24;100.00;99722.16;1273932;111;21145;-90
2021/11/20 07:36:19;;;;;;;;;;;;;;;;;;;;;
2021/11/20 07:49:25;;;;;;;21.33;8.75;;;;;;;7.53;100.00;99713.73;1275565;112;21197;-90
2021/11/20 07:52:00;;;;;;;20.92;8.53;;;;;;;7.59;100.00;99696.61;1276558;111;21328;-91
2021/11/20 07:54:30;;;;;;;22.07;9.00;;;;;;;7.65;100.00;99700.12;1276456;111;21214;-90
2021/11/20 07:57:09;;;;;;;19.87;8.65;;;;;;;7.70;100.00;99688.05;1276752;111;21268;-91
2021/11/20 07:59:52;;;;;;;21.45;8.73;;;;;;;7.74;100.00;99680.56;1269227;111;21223;-89
2021/11/20 08:05:41;;;;;;;25.10;10.18;;;;;;;7.84;100.00;99674.41;1202929;116;21270;-96
2021/11/20 08:08:11;;;;;;;22.80;9.38;;;;;;;7.87;100.00;99674.42;1210631;116;21202;-95
2021/11/20 08:10:38;;;;;;;19.57;8.58;;;;;;;7.90;100.00;99679.27;1178292;120;21254;-96
2021/11/20 08:13:24;;;;;;;;;;;;;;;;;;;;;
2021/11/20 08:15:54;;;;;;;;;;;;;;;;;;;;;
2021/11/20 08:18:20;;;;;;;15.15;7.60;;;;;;;7.92;100.00;99667.20;1230697;114;21294;-92
2021/11/20 08:21:06;;;;;;;;;;;;;;;;;;;;;
2021/11/20 08:23:28;;;;;;;18.00;7.87;;;;;;;8.06;100.00;99666.16;1236217;115;21290;-90
2021/11/20 08:31:58;;;;;;;19.73;8.20;;;;;;;8.12;100.00;99665.09;1227031;115;21251;-91
2021/11/20 08:34:47;;;;;;;;;;;;;;;;;;;;;
2021/11/20 08:37:09;;;;;;;19.17;8.43;;;;;;;8.28;100.00;99638.27;1199010;119;21405;-92
2021/11/20 08:39:40;;;;;;;30.50;9.98;;;;;;;8.33;100.00;99632.91;1199436;118;21586;-94
2021/11/20 08:42:08;;;;;;;23.87;9.78;;;;;;;8.37;100.00;99622.69;1228287;114;22065;-93
2021/11/20 08:44:35;;;;;;;19.32;8.65;;;;;;;8.44;100.00;99621.09;1273639;112;21114;-93
2021/11/20 08:47:03;;;;;;;25.35;10.58;;;;;;;8.50;100.00;99616.02;1273854;111;21645;-93
2021/11/20 08:49:30;;;;;;;22.60;9.85;;;;;;;8.56;100.00;99614.94;1265452;112;21325;-92
2021/11/20 08:51:57;;;;;;;21.73;9.50;;;;;;;8.63;100.00;99614.11;1245322;115;21232;-92
2021/11/20 08:54:23;;;;;;;22.00;10.13;;;;;;;8.70;100.00;99613.82;1245258;114;21295;-92
2021/11/20 08:56:55;;;;;;;21.57;9.43;;;;;;;8.79;100.00;99605.47;1235020;114;21241;-95
2021/11/20 08:59:24;;;;;;;24.12;10.60;;;;;;;8.86;100.00;99605.20;1229971;112;21266;-93
2021/11/20 09:02:19;;;;;;;24.50;10.48;;;;;;;8.95;100.00;99621.03;1264566;112;21288;-93
2021/11/20 09:05:00;;;;;;;24.25;10.68;;;;;;;9.04;100.00;99605.95;1303161;108;21201;-94
2021/11/20 09:07:42;;;;;;;25.50;10.95;;;;;;;9.14;100.00;99602.42;1317094;107;21275;-95
2021/11/20 09:10:13;;;;;;;27.05;12.00;;;;;;;9.24;100.00;99595.67;1320857;107;22327;-95
2021/11/20 09:12:44;;;;;;;25.37;10.75;;;;;;;9.31;100.00;99590.79;1322081;108;21167;-93
2021/11/20 09:15:37;;;;;;;26.52;11.25;;;;;;;9.37;100.00;99590.77;1339946;105;21212;-93
2021/11/20 09:18:05;;;;;;;23.62;11.22;;;;;;;9.36;100.00;99578.42;1356948;104;21677;-95
2021/11/20 09:20:35;;;;;;;27.45;11.95;;;;;;;9.47;100.00;99578.09;1379741;102;21437;-96
2021/11/20 09:23:06;;;;;;;26.75;12.45;;;;;;;9.57;100.00;99577.22;1395502;102;21062;-93
2021/11/20 09:25:33;;;;;;;28.02;12.82;;;;;;;9.71;100.00;99572.83;1395216;102;21129;-90
2021/11/20 09:28:07;;;;;;;25.95;12.93;;;;;;;9.85;100.00;99571.64;1395440;102;21129;-91
2021/11/20 09:30:38;;;;;;;30.80;14.03;;;;;;;9.95;100.00;99562.16;1355862;104;21259;-95
2021/11/20 09:33:05;;;;;;;36.48;14.20;;;;;;;10.05;100.00;99561.27;1355649;104;21242;-96
2021/11/20 09:38:02;;;;;;;34.35;14.25;;;;;;;10.33;100.00;99542.77;1327748;106;21211;-93
2021/11/20 09:40:33;;;;;;;36.70;14.75;;;;;;;10.36;100.00;99543.00;1327970;107;21657;-95
2021/11/20 09:43:01;;;;;;;36.42;14.35;;;;;;;10.42;100.00;99543.75;1312537;109;21091;-96
2021/11/20 09:45:33;;;;;;;36.23;15.00;;;;;;;10.44;100.00;99539.70;1313711;109;21205;-95
2021/11/20 09:48:28;;;;;;;37.90;14.45;;;;;;;10.56;100.00;99545.22;1320516;108;21264;-92
2021/11/20 09:51:00;;;;;;;36.95;14.18;;;;;;;10.63;100.00;99541.66;1287537;110;21156;-94
2021/11/20 09:53:26;;;;;;;32.48;13.45;;;;;;;10.72;100.00;99535.89;1270534;112;21251;-93
2021/11/20 09:55:58;;;;;;;32.67;13.53;;;;;;;10.82;100.00;99539.80;1270752;111;21320;-94
2021/11/20 09:58:35;;;;;;;30.08;12.78;;;;;;;10.94;100.00;99538.05;1270399;112;21685;-96
2021/11/20 10:01:34;;;;;;;29.37;12.60;;;;;;;11.05;100.00;99535.49;1258763;112;21219;-94
2021/11/20 10:04:11;;;;;;;27.22;11.57;;;;;;;11.21;100.00;99534.77;1230454;115;21251;-96
2021/11/20 10:06:50;;;;;;;26.50;10.72;;;;;;;11.40;100.00;99529.92;1246663;113;21703;-95
2021/11/20 10:09:28;;;;;;;22.10;9.55;;;;;;;11.56;100.00;99529.42;1254713;113;21122;-95
2021/11/20 10:12:14;;;;;;;19.17;8.60;;;;;;;11.73;100.00;99520.78;1258425;113;22110;-95
2021/11/20 10:14:53;;;;;;;18.27;7.45;;;;;;;11.80;100.00;99523.13;1266769;112;21158;-96
2021/11/20 10:17:46;;;;;;;13.53;6.10;;;;;;;11.91;100.00;99522.43;1258298;112;21267;-92
2021/11/20 10:20:43;;;;;;;10.23;4.50;;;;;;;12.00;100.00;99524.18;1261760;112;21125;-95
2021/11/20 10:23:45;;;;;;;8.50;4.17;;;;;;;12.12;100.00;99535.87;1302442;109;21461;-96
2021/11/20 10:26:57;;;;;;;8.05;3.35;;;;;;;12.18;100.00;99531.98;1291602;110;21725;-96
2021/11/20 10:30:02;;;;;;;7.05;3.70;;;;;;;12.16;100.00;99526.62;1363915;105;21289;-95
2021/11/20 10:33:04;;;;;;;9.38;3.92;;;;;;;12.16;100.00;99523.36;1357050;105;21140;-96
2021/11/20 10:38:32;;;;;;;9.60;5.10;;;;;;;12.23;100.00;99529.16;1366186;104;21086;-96
2021/11/20 10:41:43;;;;;;;10.23;5.50;;;;;;;12.22;100.00;99529.48;1413286;99;21984;-94
2021/11/20 10:44:20;;;;;;;14.43;6.12;;;;;;;12.15;100.00;99515.02;1377530;103;21849;-93
2021/11/20 10:47:07;;;;;;;10.50;5.53;;;;;;;12.13;100.00;99526.66;1412522;99;21521;-92
2021/11/20 10:49:50;;;;;;;10.90;6.00;;;;;;;12.15;100.00;99516.92;1421126;100;21156;-94
2021/11/20 10:52:34;;;;;;;15.03;6.53;;;;;;;12.12;100.00;99512.08;1420693;100;21133;-92
2021/11/20 10:55:23;;;;;;;12.98;6.12;;;;;;;12.07;100.00;99512.99;1419411;100;21819;-94
2021/11/20 10:58:23;;;;;;;12.33;5.70;;;;;;;12.00;100.00;99509.33;1416956;101;21442;-92
2021/11/20 11:01:30;;;;;;;14.25;5.67;;;;;;;11.96;100.00;99506.95;1416799;101;21669;-92
2021/11/20 11:04:07;;;;;;;12.95;5.97;;;;;;;11.91;100.00;99506.23;1407059;101;21121;-92
2021/11/20 11:07:12;;;;;;;11.80;5.87;;;;;;;11.89;100.00;99492.25;1394808;102;21127;-91
2021/11/20 11:09:49;;;;;;;12.20;6.03;;;;;;;11.86;100.00;99488.23;1430107;99;21236;-92
2021/11/20 11:12:26;;;;;;;12.95;5.85;;;;;;;11.83;100.00;99496.89;1418729;100;21145;-93
2021/11/20 11:15:18;;;;;;;10.15;5.37;;;;;;;11.79;100.00;99497.21;1425476;97;21172;-92
2021/11/20 11:18:22;;;;;;;11.08;5.42;;;;;;;11.77;100.00;99504.83;1455979;97;21528;-92
2021/11/20 11:21:22;;;;;;;12.20;5.10;;;;;;;11.77;100.00;99507.52;1452184;97;21192;-93
2021/11/20 11:24:30;;;;;;;10.23;5.40;;;;;;;11.76;100.00;99507.25;1451750;97;21173;-93
2021/11/20 11:27:11;;;;;;;16.12;5.17;;;;;;;11.77;100.00;99507.52;1447417;98;21148;-92
2021/11/20 11:29:51;;;;;;;10.70;5.12;;;;;;;11.77;100.00;99502.12;1453299;96;21173;-92
2021/11/20 11:32:17;;;;;;;12.75;5.20;;;;;;;11.76;100.00;99499.15;1451518;97;21128;-94
2021/11/20 11:34:52;;;;;;;11.57;4.65;;;;;;;11.73;100.00;99497.05;1481088;93;21264;-92
2021/11/20 11:37:46;;;;;;;11.65;5.28;;;;;;;11.69;100.00;99508.98;1492359;96;21892;-91
2021/11/20 11:40:49;;;;;;;10.15;4.60;;;;;;;11.69;100.00;99512.23;1461881;98;21086;-91
2021/11/20 11:43:44;;;;;;;13.88;4.87;;;;;;;11.71;100.00;99516.24;1449463;99;21173;-93
2021/11/20 11:46:29;;;;;;;10.60;4.30;;;;;;;11.71;100.00;99518.94;1454148;98;21148;-93
2021/11/20 11:49:16;;;;;;;12.37;4.92;;;;;;;11.74;100.00;99514.86;1454266;98;21181;-93
2021/11/20 11:52:07;;;;;;;8.25;3.80;;;;;;;11.75;100.00;99515.90;1454356;98;21228;-90
2021/11/20 11:54:47;;;;;;;11.53;4.20;;;;;;;11.75;100.00;99515.90;1452773;98;21300;-91
2021/11/20 11:57:18;;;;;;;10.82;4.40;;;;;;;11.76;100.00;99518.05;1476933;95;21105;-93
2021/11/20 12:00:28;;;;;;;8.10;3.52;;;;;;;11.78;100.00;99512.61;1494099;96;21122;-92
2021/11/20 12:02:58;;;;;;;9.88;4.33;;;;;;;11.78;100.00;99509.91;1452935;97;21183;-94
2021/11/20 12:05:36;;;;;;;11.10;4.22;;;;;;;11.77;100.00;99525.06;1493893;96;21145;-95
2021/11/20 12:08:38;;;;;;;11.53;3.90;;;;;;;11.79;100.00;99514.23;1493958;96;21673;-94
2021/11/20 12:11:37;;;;;;;12.88;3.65;;;;;;;11.78;100.00;99529.36;1492238;96;21105;-95
2021/11/20 12:14:41;;;;;;;8.83;4.17;;;;;;;11.76;100.00;99528.28;1489157;96;21149;-94
2021/11/20 12:18:01;;;;;;;9.23;3.20;;;;;;;11.74;100.00;99531.85;1444324;97;21099;-93
2021/11/20 12:20:56;;;;;;;15.98;3.92;;;;;;;11.77;100.00;99534.52;1457455;97;21338;-94
2021/11/20 12:23:47;;;;;;;7.65;3.72;;;;;;;11.76;100.00;99533.69;1457083;98;21036;-95
2021/11/20 12:26:16;;;;;;;11.45;3.70;;;;;;;11.81;100.00;99543.06;1458147;96;21146;-96
2021/11/20 12:29:03;;;;;;;10.23;3.60;;;;;;;11.86;100.00;99531.98;1457475;98;21159;-93